sensor_id;sensor_type;location;lat;lon;timestamp;temperature;humidity
23385;DHT22;11865;45.394;10.978;2022-08-30T00:01:10;24.20;99.90
23385;DHT22;11865;45.394;10.978;2022-08-30T00:03:42;24.20;99.90
23385;DHT22;11865;45.394;10.978;2022-08-30T00:06:16;24.20;99.90
23385;DHT22;11865;45.394;10.978;2022-08-30T00:08:44;24.10;99.90
23385;DHT22;11865;45.394;10.978;2022-08-30T00:11:15;24.00;99.90
23385;DHT22;11865;45.394;10.978;2022-08-30T00:13:45;24.00;99.90
23385;DHT22;11865;45.394;10.978;2022-08-30T00:16:13;24.00;99.90
23385;DHT22;11865;45.394;10.978;2022-08-30T00:18:41;24.00;99.90
23385;DHT22;11865;45.394;10.978;2022-08-30T00:21:10;23.90;99.90
23385;DHT22;11865;45.394;10.978;2022-08-30T00:23:38;23.90;99.90
23385;DHT22;11865;45.394;10.978;2022-08-30T00:26:06;23.90;99.90
23385;DHT22;11865;45.394;10.978;2022-08-30T00:28:34;23.90;99.90
23385;DHT22;11865;45.394;10.978;2022-08-30T00:31:03;23.90;99.90
23385;DHT22;11865;45.394;10.978;2022-08-30T00:33:31;23.90;99.90
23385;DHT22;11865;45.394;10.978;2022-08-30T00:35:59;23.80;99.90
23385;DHT22;11865;45.394;10.978;2022-08-30T00:38:27;23.90;99.90
23385;DHT22;11865;45.394;10.978;2022-08-30T00:40:54;23.80;99.90
23385;DHT22;11865;45.394;10.978;2022-08-30T00:43:25;23.70;99.90
23385;DHT22;11865;45.394;10.978;2022-08-30T00:45:54;23.70;99.90
23385;DHT22;11865;45.394;10.978;2022-08-30T00:48:22;23.70;99.90
23385;DHT22;11865;45.394;10.978;2022-08-30T00:51:01;23.70;99.90
23385;DHT22;11865;45.394;10.978;2022-08-30T00:53:38;23.80;99.90
23385;DHT22;11865;45.394;10.978;2022-08-30T00:56:07;23.90;99.90
23385;DHT22;11865;45.394;10.978;2022-08-30T00:58:37;23.90;99.90
23385;DHT22;11865;45.394;10.978;2022-08-30T01:01:06;23.80;99.90
23385;DHT22;11865;45.394;10.978;2022-08-30T01:03:36;23.80;99.90
23385;DHT22;11865;45.394;10.978;2022-08-30T01:06:05;23.80;99.90
23385;DHT22;11865;45.394;10.978;2022-08-30T01:08:34;23.80;99.90
23385;DHT22;11865;45.394;10.978;2022-08-30T01:11:03;23.80;99.90
23385;DHT22;11865;45.394;10.978;2022-08-30T01:13:33;23.70;99.90
23385;DHT22;11865;45.394;10.978;2022-08-30T01:16:02;23.70;99.90
23385;DHT22;11865;45.394;10.978;2022-08-30T01:18:30;23.70;99.90
23385;DHT22;11865;45.394;10.978;2022-08-30T01:23:39;23.70;99.90
23385;DHT22;11865;45.394;10.978;2022-08-30T01:26:10;23.70;99.90
23385;DHT22;11865;45.394;10.978;2022-08-30T01:28:44;23.60;99.90
23385;DHT22;11865;45.394;10.978;2022-08-30T01:31:14;23.70;99.90
23385;DHT22;11865;45.394;10.978;2022-08-30T01:33:42;23.60;99.90
23385;DHT22;11865;45.394;10.978;2022-08-30T01:36:12;23.50;99.90
23385;DHT22;11865;45.394;10.978;2022-08-30T01:38:51;23.40;99.90
23385;DHT22;11865;45.394;10.978;2022-08-30T01:41:34;23.30;99.90
23385;DHT22;11865;45.394;10.978;2022-08-30T01:44:05;23.20;99.90
23385;DHT22;11865;45.394;10.978;2022-08-30T01:46:41;23.20;99.90
23385;DHT22;11865;45.394;10.978;2022-08-30T01:49:12;23.20;99.90
23385;DHT22;11865;45.394;10.978;2022-08-30T01:51:41;23.40;99.90
23385;DHT22;11865;45.394;10.978;2022-08-30T01:54:08;23.40;99.90
23385;DHT22;11865;45.394;10.978;2022-08-30T01:56:36;23.50;99.90
23385;DHT22;11865;45.394;10.978;2022-08-30T01:59:04;23.50;99.90
23385;DHT22;11865;45.394;10.978;2022-08-30T02:01:34;23.50;99.90
23385;DHT22;11865;45.394;10.978;2022-08-30T02:04:04;23.40;99.90
23385;DHT22;11865;45.394;10.978;2022-08-30T02:06:32;23.30;99.90
23385;DHT22;11865;45.394;10.978;2022-08-30T02:09:00;23.30;99.90
23385;DHT22;11865;45.394;10.978;2022-08-30T02:11:27;23.40;99.90
23385;DHT22;11865;45.394;10.978;2022-08-30T02:13:55;23.50;99.90
23385;DHT22;11865;45.394;10.978;2022-08-30T02:16:24;23.60;99.90
23385;DHT22;11865;45.394;10.978;2022-08-30T02:18:53;23.50;99.90
23385;DHT22;11865;45.394;10.978;2022-08-30T02:21:23;23.50;99.90
23385;DHT22;11865;45.394;10.978;2022-08-30T02:23:51;23.50;99.90
23385;DHT22;11865;45.394;10.978;2022-08-30T02:26:20;23.40;99.90
23385;DHT22;11865;45.394;10.978;2022-08-30T02:28:48;23.30;99.90
23385;DHT22;11865;45.394;10.978;2022-08-30T02:31:18;23.30;99.90
23385;DHT22;11865;45.394;10.978;2022-08-30T02:33:49;23.20;99.90
23385;DHT22;11865;45.394;10.978;2022-08-30T02:36:17;23.20;99.90
23385;DHT22;11865;45.394;10.978;2022-08-30T02:38:47;23.10;99.90
23385;DHT22;11865;45.394;10.978;2022-08-30T02:41:16;23.20;99.90
23385;DHT22;11865;45.394;10.978;2022-08-30T02:43:43;23.10;99.90
23385;DHT22;11865;45.394;10.978;2022-08-30T02:46:11;23.20;99.90
23385;DHT22;11865;45.394;10.978;2022-08-30T02:48:38;23.20;99.90
23385;DHT22;11865;45.394;10.978;2022-08-30T02:51:09;23.20;99.90
23385;DHT22;11865;45.394;10.978;2022-08-30T02:53:39;23.30;99.90
23385;DHT22;11865;45.394;10.978;2022-08-30T02:56:07;23.40;99.90
23385;DHT22;11865;45.394;10.978;2022-08-30T02:58:35;23.50;99.90
23385;DHT22;11865;45.394;10.978;2022-08-30T03:01:03;23.50;99.90
23385;DHT22;11865;45.394;10.978;2022-08-30T03:03:32;23.60;99.90
23385;DHT22;11865;45.394;10.978;2022-08-30T03:06:00;23.60;99.90
23385;DHT22;11865;45.394;10.978;2022-08-30T03:08:30;23.50;99.90
23385;DHT22;11865;45.394;10.978;2022-08-30T03:10:58;23.50;99.90
23385;DHT22;11865;45.394;10.978;2022-08-30T03:13:26;23.50;99.90
23385;DHT22;11865;45.394;10.978;2022-08-30T03:15:53;23.60;99.90
23385;DHT22;11865;45.394;10.978;2022-08-30T03:18:21;23.60;99.90
23385;DHT22;11865;45.394;10.978;2022-08-30T03:20:50;23.70;99.90
23385;DHT22;11865;45.394;10.978;2022-08-30T03:23:21;23.70;99.90
23385;DHT22;11865;45.394;10.978;2022-08-30T03:25:50;23.80;99.90
23385;DHT22;11865;45.394;10.978;2022-08-30T03:28:18;23.80;99.90
23385;DHT22;11865;45.394;10.978;2022-08-30T03:30:45;23.80;99.90
23385;DHT22;11865;45.394;10.978;2022-08-30T03:33:14;23.90;99.90
23385;DHT22;11865;45.394;10.978;2022-08-30T03:35:44;23.90;99.90
23385;DHT22;11865;45.394;10.978;2022-08-30T03:38:12;24.00;99.90
23385;DHT22;11865;45.394;10.978;2022-08-30T03:40:40;23.90;99.90
23385;DHT22;11865;45.394;10.978;2022-08-30T03:43:08;24.00;99.90
23385;DHT22;11865;45.394;10.978;2022-08-30T03:45:36;24.00;99.90
23385;DHT22;11865;45.394;10.978;2022-08-30T03:48:04;24.10;99.90
23385;DHT22;11865;45.394;10.978;2022-08-30T03:50:31;24.10;99.90
23385;DHT22;11865;45.394;10.978;2022-08-30T03:52:59;24.20;99.90
23385;DHT22;11865;45.394;10.978;2022-08-30T03:55:28;24.30;99.90
23385;DHT22;11865;45.394;10.978;2022-08-30T03:57:56;24.30;99.90
23385;DHT22;11865;45.394;10.978;2022-08-30T04:00:24;24.30;99.90
23385;DHT22;11865;45.394;10.978;2022-08-30T04:02:52;24.30;99.90
23385;DHT22;11865;45.394;10.978;2022-08-30T04:05:19;24.30;99.90
23385;DHT22;11865;45.394;10.978;2022-08-30T04:07:47;24.30;99.90
23385;DHT22;11865;45.394;10.978;2022-08-30T04:10:14;24.20;99.90
23385;DHT22;11865;45.394;10.978;2022-08-30T04:12:42;24.20;99.90
23385;DHT22;11865;45.394;10.978;2022-08-30T04:15:17;24.20;99.90
23385;DHT22;11865;45.394;10.978;2022-08-30T04:17:46;24.20;99.90
23385;DHT22;11865;45.394;10.978;2022-08-30T04:20:15;24.20;99.90
23385;DHT22;11865;45.394;10.978;2022-08-30T04:22:42;24.20;99.90
23385;DHT22;11865;45.394;10.978;2022-08-30T04:25:10;24.20;99.90
23385;DHT22;11865;45.394;10.978;2022-08-30T04:27:45;24.20;99.90
23385;DHT22;11865;45.394;10.978;2022-08-30T04:30:14;24.20;99.90
23385;DHT22;11865;45.394;10.978;2022-08-30T04:32:43;24.20;99.90
23385;DHT22;11865;45.394;10.978;2022-08-30T04:35:11;24.20;99.90
23385;DHT22;11865;45.394;10.978;2022-08-30T04:37:39;24.20;99.90
23385;DHT22;11865;45.394;10.978;2022-08-30T04:40:07;24.20;99.90
23385;DHT22;11865;45.394;10.978;2022-08-30T04:42:35;24.20;99.90
23385;DHT22;11865;45.394;10.978;2022-08-30T04:45:05;24.20;99.90
23385;DHT22;11865;45.394;10.978;2022-08-30T04:47:34;24.10;99.90
23385;DHT22;11865;45.394;10.978;2022-08-30T04:50:01;24.20;99.90
23385;DHT22;11865;45.394;10.978;2022-08-30T04:52:30;24.20;99.90
23385;DHT22;11865;45.394;10.978;2022-08-30T04:54:58;24.10;99.90
23385;DHT22;11865;45.394;10.978;2022-08-30T04:57:26;24.20;99.90
23385;DHT22;11865;45.394;10.978;2022-08-30T04:59:55;24.10;99.90
23385;DHT22;11865;45.394;10.978;2022-08-30T05:02:23;24.00;99.90
23385;DHT22;11865;45.394;10.978;2022-08-30T05:04:50;23.90;99.90
23385;DHT22;11865;45.394;10.978;2022-08-30T05:07:40;24.00;99.90
23385;DHT22;11865;45.394;10.978;2022-08-30T05:10:08;23.90;99.90
23385;DHT22;11865;45.394;10.978;2022-08-30T05:12:39;23.80;99.90
23385;DHT22;11865;45.394;10.978;2022-08-30T05:15:08;23.80;99.90
23385;DHT22;11865;45.394;10.978;2022-08-30T05:17:36;23.70;99.90
23385;DHT22;11865;45.394;10.978;2022-08-30T05:20:06;23.70;99.90
23385;DHT22;11865;45.394;10.978;2022-08-30T05:22:38;23.70;99.90
23385;DHT22;11865;45.394;10.978;2022-08-30T05:25:07;23.70;99.90
23385;DHT22;11865;45.394;10.978;2022-08-30T05:27:34;23.60;99.90
23385;DHT22;11865;45.394;10.978;2022-08-30T05:30:04;23.60;99.90
23385;DHT22;11865;45.394;10.978;2022-08-30T05:32:32;23.60;99.90
23385;DHT22;11865;45.394;10.978;2022-08-30T05:34:59;23.60;99.90
23385;DHT22;11865;45.394;10.978;2022-08-30T05:37:27;23.50;99.90
23385;DHT22;11865;45.394;10.978;2022-08-30T05:39:54;23.50;99.90
23385;DHT22;11865;45.394;10.978;2022-08-30T05:42:22;23.40;99.90
23385;DHT22;11865;45.394;10.978;2022-08-30T05:44:51;23.50;99.90
23385;DHT22;11865;45.394;10.978;2022-08-30T05:47:20;23.50;99.90
23385;DHT22;11865;45.394;10.978;2022-08-30T05:49:47;23.60;99.90
23385;DHT22;11865;45.394;10.978;2022-08-30T05:52:15;23.60;99.90
23385;DHT22;11865;45.394;10.978;2022-08-30T05:54:45;23.70;99.90
23385;DHT22;11865;45.394;10.978;2022-08-30T05:57:12;23.60;99.90
23385;DHT22;11865;45.394;10.978;2022-08-30T05:59:40;23.70;99.90
23385;DHT22;11865;45.394;10.978;2022-08-30T06:02:07;23.80;99.90
23385;DHT22;11865;45.394;10.978;2022-08-30T06:04:35;23.90;99.90
23385;DHT22;11865;45.394;10.978;2022-08-30T06:07:03;24.00;99.90
23385;DHT22;11865;45.394;10.978;2022-08-30T06:09:31;24.50;99.90
23385;DHT22;11865;45.394;10.978;2022-08-30T06:11:58;25.60;99.30
23385;DHT22;11865;45.394;10.978;2022-08-30T06:14:26;26.40;96.80
23385;DHT22;11865;45.394;10.978;2022-08-30T06:16:53;27.10;96.00
23385;DHT22;11865;45.394;10.978;2022-08-30T06:19:21;27.30;95.50
23385;DHT22;11865;45.394;10.978;2022-08-30T06:21:49;27.40;95.50
23385;DHT22;11865;45.394;10.978;2022-08-30T06:24:17;27.70;94.90
23385;DHT22;11865;45.394;10.978;2022-08-30T06:26:48;27.90;94.00
23385;DHT22;11865;45.394;10.978;2022-08-30T06:29:19;28.20;94.20
23385;DHT22;11865;45.394;10.978;2022-08-30T06:31:47;29.00;93.10
23385;DHT22;11865;45.394;10.978;2022-08-30T06:34:16;28.60;92.90
23385;DHT22;11865;45.394;10.978;2022-08-30T06:36:44;28.20;93.70
23385;DHT22;11865;45.394;10.978;2022-08-30T06:39:11;28.00;93.90
23385;DHT22;11865;45.394;10.978;2022-08-30T06:41:40;27.80;93.90
23385;DHT22;11865;45.394;10.978;2022-08-30T06:44:23;28.40;93.90
23385;DHT22;11865;45.394;10.978;2022-08-30T06:46:50;29.30;93.00
23385;DHT22;11865;45.394;10.978;2022-08-30T06:49:18;29.70;91.80
23385;DHT22;11865;45.394;10.978;2022-08-30T06:51:45;30.50;91.50
23385;DHT22;11865;45.394;10.978;2022-08-30T06:54:13;30.80;89.30
23385;DHT22;11865;45.394;10.978;2022-08-30T06:56:41;31.30;87.00
23385;DHT22;11865;45.394;10.978;2022-08-30T06:59:25;31.60;87.10
23385;DHT22;11865;45.394;10.978;2022-08-30T07:01:54;31.00;89.60
23385;DHT22;11865;45.394;10.978;2022-08-30T07:04:22;30.50;89.60
23385;DHT22;11865;45.394;10.978;2022-08-30T07:06:50;30.00;90.20
23385;DHT22;11865;45.394;10.978;2022-08-30T07:09:17;30.10;91.20
23385;DHT22;11865;45.394;10.978;2022-08-30T07:11:50;30.10;92.10
23385;DHT22;11865;45.394;10.978;2022-08-30T07:14:18;29.80;89.20
23385;DHT22;11865;45.394;10.978;2022-08-30T07:16:46;30.00;90.80
23385;DHT22;11865;45.394;10.978;2022-08-30T07:19:18;29.50;91.30
23385;DHT22;11865;45.394;10.978;2022-08-30T07:21:47;29.30;92.20
23385;DHT22;11865;45.394;10.978;2022-08-30T07:24:15;29.90;91.60
23385;DHT22;11865;45.394;10.978;2022-08-30T07:26:46;29.80;92.10
23385;DHT22;11865;45.394;10.978;2022-08-30T07:29:16;30.80;91.40
23385;DHT22;11865;45.394;10.978;2022-08-30T07:31:43;30.90;90.30
23385;DHT22;11865;45.394;10.978;2022-08-30T07:34:11;31.50;91.00
23385;DHT22;11865;45.394;10.978;2022-08-30T07:36:38;31.20;90.40
23385;DHT22;11865;45.394;10.978;2022-08-30T07:39:06;30.90;89.60
23385;DHT22;11865;45.394;10.978;2022-08-30T07:41:35;30.80;89.50
23385;DHT22;11865;45.394;10.978;2022-08-30T07:44:07;30.50;90.80
23385;DHT22;11865;45.394;10.978;2022-08-30T07:46:36;30.50;90.70
23385;DHT22;11865;45.394;10.978;2022-08-30T07:49:05;30.60;91.10
23385;DHT22;11865;45.394;10.978;2022-08-30T07:51:39;30.60;90.00
23385;DHT22;11865;45.394;10.978;2022-08-30T07:54:07;30.50;89.10
23385;DHT22;11865;45.394;10.978;2022-08-30T07:56:34;30.20;91.00
23385;DHT22;11865;45.394;10.978;2022-08-30T07:59:02;30.70;92.20
23385;DHT22;11865;45.394;10.978;2022-08-30T08:01:30;30.00;96.30
23385;DHT22;11865;45.394;10.978;2022-08-30T08:03:57;30.20;97.40
23385;DHT22;11865;45.394;10.978;2022-08-30T08:06:25;29.60;92.80
23385;DHT22;11865;45.394;10.978;2022-08-30T08:09:01;29.50;91.90
23385;DHT22;11865;45.394;10.978;2022-08-30T08:11:29;29.50;90.30
23385;DHT22;11865;45.394;10.978;2022-08-30T08:14:01;29.70;90.90
23385;DHT22;11865;45.394;10.978;2022-08-30T08:16:33;29.60;90.60
23385;DHT22;11865;45.394;10.978;2022-08-30T08:19:01;29.40;89.80
23385;DHT22;11865;45.394;10.978;2022-08-30T08:21:28;29.80;85.30
23385;DHT22;11865;45.394;10.978;2022-08-30T08:23:56;29.80;88.40
23385;DHT22;11865;45.394;10.978;2022-08-30T08:26:23;29.80;89.50
23385;DHT22;11865;45.394;10.978;2022-08-30T08:28:51;29.40;86.70
23385;DHT22;11865;45.394;10.978;2022-08-30T08:31:26;30.00;86.30
23385;DHT22;11865;45.394;10.978;2022-08-30T08:34:01;29.90;84.10
23385;DHT22;11865;45.394;10.978;2022-08-30T08:36:33;30.10;85.80
23385;DHT22;11865;45.394;10.978;2022-08-30T08:39:02;29.60;87.70
23385;DHT22;11865;45.394;10.978;2022-08-30T08:44:34;29.50;90.00
23385;DHT22;11865;45.394;10.978;2022-08-30T08:49:45;29.20;89.70
23385;DHT22;11865;45.394;10.978;2022-08-30T08:52:21;29.20;87.40
23385;DHT22;11865;45.394;10.978;2022-08-30T08:55:12;29.20;88.90
23385;DHT22;11865;45.394;10.978;2022-08-30T08:57:40;29.10;88.40
23385;DHT22;11865;45.394;10.978;2022-08-30T09:00:10;29.20;88.20
23385;DHT22;11865;45.394;10.978;2022-08-30T09:02:46;29.00;89.70
23385;DHT22;11865;45.394;10.978;2022-08-30T09:05:18;29.40;90.70
23385;DHT22;11865;45.394;10.978;2022-08-30T09:07:49;29.60;90.00
23385;DHT22;11865;45.394;10.978;2022-08-30T09:10:20;29.10;88.40
23385;DHT22;11865;45.394;10.978;2022-08-30T09:13:08;29.30;90.90
23385;DHT22;11865;45.394;10.978;2022-08-30T09:15:40;29.40;91.10
23385;DHT22;11865;45.394;10.978;2022-08-30T09:18:07;29.60;91.40
23385;DHT22;11865;45.394;10.978;2022-08-30T09:20:48;29.60;90.60
23385;DHT22;11865;45.394;10.978;2022-08-30T09:23:25;29.70;90.30
23385;DHT22;11865;45.394;10.978;2022-08-30T09:26:04;29.20;89.60
23385;DHT22;11865;45.394;10.978;2022-08-30T09:28:34;29.40;90.00
23385;DHT22;11865;45.394;10.978;2022-08-30T09:31:26;29.10;90.40
23385;DHT22;11865;45.394;10.978;2022-08-30T09:36:40;29.60;90.80
23385;DHT22;11865;45.394;10.978;2022-08-30T09:39:32;29.40;90.70
23385;DHT22;11865;45.394;10.978;2022-08-30T09:42:19;29.60;89.60
23385;DHT22;11865;45.394;10.978;2022-08-30T09:44:48;29.60;89.70
23385;DHT22;11865;45.394;10.978;2022-08-30T09:47:28;29.70;90.00
23385;DHT22;11865;45.394;10.978;2022-08-30T09:58:22;30.10;88.90
23385;DHT22;11865;45.394;10.978;2022-08-30T10:01:03;30.70;88.10
23385;DHT22;11865;45.394;10.978;2022-08-30T10:06:50;30.90;89.80
23385;DHT22;11865;45.394;10.978;2022-08-30T10:12:15;30.50;83.20
23385;DHT22;11865;45.394;10.978;2022-08-30T10:23:10;30.80;89.10
23385;DHT22;11865;45.394;10.978;2022-08-30T10:25:49;30.80;87.30
23385;DHT22;11865;45.394;10.978;2022-08-30T10:33:53;31.30;83.20
23385;DHT22;11865;45.394;10.978;2022-08-30T10:36:32;31.20;89.10
23385;DHT22;11865;45.394;10.978;2022-08-30T10:39:02;30.80;90.70
